createdAt,value
2023-03-19T00:00:29.451Z,15.70
2023-03-19T00:03:36.114Z,17.10
2023-03-19T00:06:42.286Z,16.00
2023-03-19T00:09:48.468Z,14.80
2023-03-19T00:15:58.835Z,14.60
2023-03-19T00:19:05.202Z,15.60
2023-03-19T00:25:15.912Z,19.30
2023-03-19T00:28:21.853Z,22.00
2023-03-19T00:31:29.351Z,21.70
2023-03-19T00:34:35.129Z,15.70
2023-03-19T00:37:42.088Z,28.50
2023-03-19T00:40:48.678Z,26.60
2023-03-19T00:43:57.487Z,24.70
2023-03-19T00:47:03.293Z,23.50
2023-03-19T00:50:11.167Z,22.20
2023-03-19T00:53:17.469Z,25.60
2023-03-19T00:56:23.247Z,24.70
2023-03-19T00:59:29.252Z,23.60
2023-03-19T01:02:35.588Z,24.30
2023-03-19T01:08:45.664Z,22.00
2023-03-19T01:11:51.449Z,20.40
2023-03-19T01:14:57.277Z,16.70
2023-03-19T01:18:03.245Z,16.10
2023-03-19T01:21:10.935Z,13.60
2023-03-19T01:24:17.190Z,13.60
2023-03-19T01:27:23.109Z,15.90
2023-03-19T01:30:29.020Z,16.20
2023-03-19T01:33:35.035Z,17.90
2023-03-19T01:36:40.939Z,17.50
2023-03-19T01:39:46.797Z,16.70
2023-03-19T01:42:57.979Z,13.10
2023-03-19T01:46:08.569Z,14.90
2023-03-19T01:49:15.380Z,14.00
2023-03-19T01:52:22.710Z,14.20
2023-03-19T01:55:28.633Z,14.20
2023-03-19T01:58:34.557Z,14.40
2023-03-19T02:01:45.081Z,14.10
2023-03-19T02:04:55.819Z,13.40
2023-03-19T02:08:05.341Z,13.30
2023-03-19T02:11:11.804Z,14.00
2023-03-19T02:17:23.285Z,15.50
2023-03-19T02:20:33.962Z,15.10
2023-03-19T02:23:46.783Z,16.00
2023-03-19T02:26:53.460Z,16.10
2023-03-19T02:30:01.390Z,57.30
2023-03-19T02:33:08.584Z,38.00
2023-03-19T02:36:19.393Z,17.30
2023-03-19T02:39:31.004Z,19.00
2023-03-19T02:42:36.865Z,15.50
2023-03-19T02:45:42.746Z,14.10
2023-03-19T02:48:48.593Z,14.00
2023-03-19T02:51:54.534Z,21.90
2023-03-19T02:55:00.286Z,25.90
2023-03-19T02:58:06.156Z,30.10
2023-03-19T03:01:12.067Z,21.80
2023-03-19T03:04:17.973Z,19.40
2023-03-19T03:07:23.925Z,19.00
2023-03-19T03:10:30.574Z,15.80
2023-03-19T03:13:37.442Z,15.50
2023-03-19T03:16:43.787Z,14.60
2023-03-19T03:22:53.784Z,15.90
2023-03-19T03:25:59.537Z,16.30
2023-03-19T03:29:05.772Z,13.80
2023-03-19T03:32:12.164Z,14.30
2023-03-19T03:38:28.058Z,7.60
2023-03-19T03:41:33.897Z,7.40
2023-03-19T03:44:39.947Z,8.50
2023-03-19T03:47:46.339Z,9.10
2023-03-19T03:53:56.387Z,12.70
2023-03-19T03:57:03.598Z,13.50
2023-03-19T04:00:13.215Z,12.30
2023-03-19T04:03:19.629Z,12.90
2023-03-19T04:06:28.593Z,15.90
2023-03-19T04:09:34.371Z,11.90
2023-03-19T04:12:41.542Z,8.90
2023-03-19T04:15:48.000Z,11.80
2023-03-19T04:21:57.914Z,12.00
2023-03-19T04:25:05.120Z,11.00
2023-03-19T04:28:14.268Z,11.20
2023-03-19T04:31:20.224Z,12.40
2023-03-19T04:34:26.174Z,9.20
2023-03-19T04:37:32.107Z,8.70
2023-03-19T04:40:37.972Z,8.80
2023-03-19T04:43:43.928Z,7.50
2023-03-19T04:46:49.773Z,7.00
2023-03-19T04:49:55.738Z,8.70
2023-03-19T04:53:01.700Z,10.60
2023-03-19T04:56:09.084Z,9.20
2023-03-19T04:59:14.843Z,10.50
2023-03-19T05:02:20.898Z,10.40
2023-03-19T05:05:27.072Z,10.80
2023-03-19T05:08:33.084Z,11.80
2023-03-19T05:11:39.396Z,11.70
2023-03-19T05:17:50.190Z,10.70
2023-03-19T05:24:00.674Z,11.90
2023-03-19T05:27:07.606Z,11.90
2023-03-19T05:30:16.074Z,11.80
2023-03-19T05:33:22.676Z,12.90
2023-03-19T05:36:29.221Z,11.30
2023-03-19T05:39:35.390Z,11.90
2023-03-19T05:42:41.244Z,11.20
2023-03-19T05:45:51.469Z,11.70
2023-03-19T05:48:57.464Z,12.10
2023-03-19T05:52:03.312Z,11.80
2023-03-19T05:55:11.143Z,12.00
2023-03-19T05:58:16.997Z,11.60
2023-03-19T06:01:23.264Z,11.10
2023-03-19T06:04:29.200Z,11.70
2023-03-19T06:07:35.060Z,11.30
2023-03-19T06:10:40.913Z,11.60
2023-03-19T06:13:47.328Z,11.50
2023-03-19T06:16:53.342Z,11.60
2023-03-19T06:19:59.096Z,11.80
2023-03-19T06:23:05.059Z,11.90
2023-03-19T06:26:11.036Z,11.70
2023-03-19T06:29:16.983Z,12.40
2023-03-19T06:32:22.950Z,11.50
2023-03-19T06:35:29.282Z,11.40
2023-03-19T06:41:39.189Z,10.70
2023-03-19T06:44:45.161Z,11.30
2023-03-19T06:47:53.510Z,10.30
2023-03-19T06:50:59.718Z,10.80
2023-03-19T06:54:06.091Z,9.90
2023-03-19T07:00:18.709Z,9.40
2023-03-19T07:03:24.483Z,9.20
2023-03-19T07:06:30.435Z,8.20
2023-03-19T07:09:36.609Z,8.90
2023-03-19T07:12:42.388Z,10.10
2023-03-19T07:15:48.319Z,8.60
2023-03-19T07:18:54.330Z,9.60
2023-03-19T07:22:00.071Z,10.60
2023-03-19T07:25:06.736Z,8.90
2023-03-19T07:28:12.564Z,8.90
2023-03-19T07:31:18.780Z,9.20
2023-03-19T07:37:29.108Z,8.40
2023-03-19T07:40:35.244Z,9.10
2023-03-19T07:46:45.855Z,8.90
2023-03-19T07:49:51.657Z,8.30
2023-03-19T07:52:57.565Z,8.60
2023-03-19T07:56:03.529Z,8.90
2023-03-19T07:59:09.407Z,8.00
2023-03-19T08:02:16.510Z,8.20
2023-03-19T08:05:22.624Z,7.80
2023-03-19T08:08:28.486Z,8.00
2023-03-19T08:11:34.261Z,7.70
2023-03-19T08:14:40.016Z,7.10
2023-03-19T08:17:46.055Z,10.10
2023-03-19T08:20:51.896Z,6.60
2023-03-19T08:23:57.767Z,5.70
2023-03-19T08:27:03.975Z,7.20
2023-03-19T08:30:12.357Z,7.10
2023-03-19T08:33:18.543Z,13.10
2023-03-19T08:39:29.377Z,8.50
2023-03-19T08:42:35.704Z,16.50
2023-03-19T08:48:46.458Z,9.30
2023-03-19T08:51:52.320Z,6.10
2023-03-19T08:54:58.381Z,17.30
2023-03-19T08:58:04.649Z,6.80
2023-03-19T09:04:16.835Z,7.00
2023-03-19T09:07:22.760Z,8.10
2023-03-19T09:10:28.894Z,8.20
2023-03-19T09:13:35.111Z,6.20
2023-03-19T09:19:45.339Z,4.70
2023-03-19T09:22:51.297Z,5.10
2023-03-19T09:25:57.359Z,4.40
2023-03-19T09:29:03.689Z,4.30
2023-03-19T09:35:14.734Z,4.90
2023-03-19T09:41:34.839Z,4.70
2023-03-19T09:44:44.381Z,4.80
2023-03-19T09:47:54.775Z,4.50
2023-03-19T09:51:04.588Z,5.10
2023-03-19T09:54:23.873Z,4.50
2023-03-19T09:57:30.029Z,4.80
2023-03-19T10:03:54.460Z,4.60
2023-03-19T10:07:08.647Z,4.70
2023-03-19T10:10:48.610Z,4.70
2023-03-19T10:14:05.197Z,4.50
2023-03-19T10:17:20.759Z,4.20
2023-03-19T10:20:34.751Z,4.40
2023-03-19T10:23:46.918Z,4.90
2023-03-19T10:26:58.035Z,4.80
2023-03-19T10:30:07.147Z,4.50
2023-03-19T10:33:23.512Z,4.70
2023-03-19T10:36:34.694Z,4.90
2023-03-19T10:39:41.803Z,4.80
2023-03-19T10:43:04.085Z,4.80
2023-03-19T10:46:15.757Z,4.60
2023-03-19T10:49:21.538Z,4.70
2023-03-19T10:52:32.140Z,5.70
2023-03-19T10:55:38.097Z,12.80
2023-03-19T10:58:56.760Z,11.30
2023-03-19T11:02:16.501Z,7.80
2023-03-19T11:05:31.907Z,5.60
2023-03-19T11:08:40.191Z,5.00
2023-03-19T11:11:50.838Z,5.20
2023-03-19T11:14:59.469Z,4.50
2023-03-19T11:18:17.029Z,4.70
2023-03-19T11:21:30.319Z,5.10
2023-03-19T11:24:40.519Z,4.80
2023-03-19T11:27:48.136Z,5.00
2023-03-19T11:31:03.752Z,4.50
2023-03-19T11:34:30.981Z,4.80
2023-03-19T11:37:52.196Z,4.40
2023-03-19T11:41:07.174Z,4.80
2023-03-19T11:44:21.017Z,3.80
2023-03-19T11:47:36.393Z,4.50
2023-03-19T11:50:50.576Z,4.90
2023-03-19T11:54:06.665Z,4.50
2023-03-19T11:57:20.036Z,4.60
2023-03-19T12:00:34.023Z,5.20
2023-03-19T12:04:15.546Z,4.90
2023-03-19T12:07:31.729Z,4.70
2023-03-19T12:10:53.734Z,5.00
2023-03-19T12:14:25.313Z,5.00
2023-03-19T12:17:45.985Z,4.60
2023-03-19T12:21:04.988Z,4.50
2023-03-19T12:24:23.648Z,4.40
2023-03-19T12:27:40.816Z,5.10
2023-03-19T12:30:50.783Z,4.90
2023-03-19T12:34:07.831Z,4.70
2023-03-19T12:37:22.639Z,4.50
2023-03-19T12:40:36.964Z,5.20
2023-03-19T12:43:51.454Z,4.60
2023-03-19T12:47:04.414Z,4.70
2023-03-19T12:50:15.415Z,4.50
2023-03-19T12:53:32.981Z,4.40
2023-03-19T12:56:45.167Z,5.30
2023-03-19T12:59:56.638Z,5.10
2023-03-19T13:03:09.292Z,4.60
2023-03-19T13:06:21.922Z,4.90
2023-03-19T13:09:33.305Z,5.30
2023-03-19T13:12:39.787Z,5.10
2023-03-19T13:15:50.300Z,4.80
2023-03-19T13:19:09.977Z,4.70
2023-03-19T13:22:20.604Z,4.50
2023-03-19T13:25:33.880Z,5.30
2023-03-19T13:28:55.230Z,4.80
2023-03-19T13:32:07.638Z,4.40
2023-03-19T13:35:21.862Z,4.60
2023-03-19T13:38:34.436Z,4.60
2023-03-19T13:42:09.042Z,4.60
2023-03-19T13:45:35.990Z,4.30
2023-03-19T13:48:52.889Z,4.70
2023-03-19T13:52:04.265Z,4.30
2023-03-19T13:55:34.494Z,4.20
2023-03-19T13:58:53.135Z,4.80
2023-03-19T14:02:00.242Z,4.30
2023-03-19T14:05:10.533Z,4.30
2023-03-19T14:08:24.602Z,4.20
2023-03-19T14:11:34.058Z,4.50
2023-03-19T14:14:45.362Z,4.80
2023-03-19T14:18:01.567Z,4.50
2023-03-19T14:21:12.955Z,4.40
2023-03-19T14:28:06.740Z,4.40
2023-03-19T14:31:23.113Z,3.90
2023-03-19T14:34:33.828Z,4.20
2023-03-19T14:37:49.210Z,4.60
2023-03-19T14:40:57.339Z,5.00
2023-03-19T14:44:24.508Z,4.40
2023-03-19T14:47:48.982Z,4.50
2023-03-19T14:51:10.655Z,5.70
2023-03-19T14:54:29.284Z,8.70
2023-03-19T14:57:36.304Z,5.00
2023-03-19T15:00:44.705Z,6.20
2023-03-19T15:03:56.910Z,5.10
2023-03-19T15:07:03.243Z,5.20
2023-03-19T15:10:16.074Z,4.80
2023-03-19T15:13:37.062Z,5.30
2023-03-19T15:16:54.950Z,7.90
2023-03-19T15:20:03.645Z,4.90
2023-03-19T15:23:25.675Z,4.90
2023-03-19T15:26:37.963Z,5.00
2023-03-19T15:29:44.270Z,4.50
2023-03-19T15:33:04.233Z,4.80
2023-03-19T15:36:18.553Z,5.00
2023-03-19T15:39:27.733Z,4.50
2023-03-19T15:42:34.097Z,4.60
2023-03-19T15:45:40.994Z,4.60
2023-03-19T15:48:50.977Z,4.60
2023-03-19T15:52:03.053Z,4.60
2023-03-19T15:55:10.590Z,5.20
2023-03-19T15:58:21.534Z,5.00
2023-03-19T16:01:28.231Z,5.40
2023-03-19T16:04:55.979Z,5.30
2023-03-19T16:08:04.955Z,4.50
2023-03-19T16:11:27.314Z,4.90
2023-03-19T16:14:41.949Z,4.30
2023-03-19T16:17:49.374Z,4.20
2023-03-19T16:21:14.485Z,4.70
2023-03-19T16:24:27.542Z,4.80
2023-03-19T16:27:38.450Z,5.40
2023-03-19T16:30:49.609Z,4.90
2023-03-19T16:33:57.232Z,5.40
2023-03-19T16:37:03.859Z,4.50
2023-03-19T16:40:41.198Z,5.30
2023-03-19T16:43:48.747Z,6.40
2023-03-19T16:46:55.581Z,6.00
2023-03-19T16:50:01.662Z,6.50
2023-03-19T16:53:16.230Z,5.50
2023-03-19T16:56:22.293Z,5.50
2023-03-19T16:59:30.962Z,6.90
2023-03-19T17:02:36.695Z,8.00
2023-03-19T17:05:42.720Z,7.80
2023-03-19T17:08:49.265Z,8.00
2023-03-19T17:11:55.359Z,24.60
2023-03-19T17:15:01.643Z,12.60
2023-03-19T17:21:22.574Z,14.70
2023-03-19T17:24:30.901Z,36.50
2023-03-19T17:27:37.339Z,70.10
2023-03-19T17:33:47.846Z,28.80
2023-03-19T17:39:59.299Z,11.20
2023-03-19T17:43:06.943Z,9.80
2023-03-19T17:46:17.569Z,10.70
2023-03-19T17:49:26.234Z,9.80
2023-03-19T17:52:32.013Z,11.10
2023-03-19T17:55:37.839Z,18.20
2023-03-19T17:58:44.004Z,24.70
2023-03-19T18:01:50.068Z,22.60
2023-03-19T18:04:56.337Z,21.00
2023-03-19T18:11:06.781Z,26.90
2023-03-19T18:14:12.785Z,18.60
2023-03-19T18:17:20.364Z,21.40
2023-03-19T18:20:29.815Z,14.20
2023-03-19T18:23:35.580Z,15.00
2023-03-19T18:26:41.725Z,14.20
2023-03-19T18:29:48.003Z,13.20
2023-03-19T18:32:57.146Z,12.70
2023-03-19T18:36:04.402Z,21.00
2023-03-19T18:39:14.342Z,24.10
2023-03-19T18:42:20.360Z,20.40
2023-03-19T18:45:30.607Z,18.20
2023-03-19T18:48:36.661Z,18.40
2023-03-19T18:51:58.791Z,16.80
2023-03-19T18:55:07.974Z,15.20
2023-03-19T18:58:20.533Z,14.50
2023-03-19T19:01:27.885Z,16.60
2023-03-19T19:04:33.836Z,15.80
2023-03-19T19:07:39.758Z,14.70
2023-03-19T19:10:48.537Z,15.80
2023-03-19T19:13:57.223Z,14.90
2023-03-19T19:17:03.201Z,14.30
2023-03-19T19:20:12.018Z,13.20
2023-03-19T19:23:18.585Z,12.70
2023-03-19T19:26:27.027Z,14.40
2023-03-19T19:29:32.938Z,14.40
2023-03-19T19:32:39.504Z,14.40
2023-03-19T19:35:45.942Z,13.50
2023-03-19T19:38:52.257Z,14.50
2023-03-19T19:45:03.868Z,13.10
2023-03-19T19:48:16.810Z,13.20
2023-03-19T19:51:24.921Z,13.10
2023-03-19T19:54:30.857Z,14.40
2023-03-19T19:57:36.924Z,14.70
2023-03-19T20:00:47.748Z,14.30
2023-03-19T20:03:59.629Z,14.50
2023-03-19T20:07:05.548Z,15.90
2023-03-19T20:10:14.433Z,15.10
2023-03-19T20:13:26.195Z,15.20
2023-03-19T20:16:31.995Z,14.20
2023-03-19T20:19:37.884Z,13.30
2023-03-19T20:22:43.945Z,15.00
2023-03-19T20:25:51.070Z,19.10
2023-03-19T20:28:57.091Z,18.70
2023-03-19T20:32:03.152Z,18.10
2023-03-19T20:35:16.072Z,17.00
2023-03-19T20:38:21.826Z,18.90
2023-03-19T20:41:28.605Z,17.70
2023-03-19T20:44:34.672Z,16.10
2023-03-19T20:47:40.859Z,16.90
2023-03-19T20:50:47.935Z,16.50
2023-03-19T20:53:54.102Z,16.00
2023-03-19T20:56:59.989Z,16.00
2023-03-19T21:00:18.499Z,16.60
2023-03-19T21:03:26.397Z,17.50
2023-03-19T21:06:42.720Z,15.60
2023-03-19T21:09:58.124Z,15.60
2023-03-19T21:13:05.491Z,15.70
2023-03-19T21:16:17.543Z,17.10
2023-03-19T21:19:25.940Z,17.10
2023-03-19T21:22:33.143Z,18.30
2023-03-19T21:25:39.327Z,19.30
2023-03-19T21:28:46.637Z,18.90
2023-03-19T21:31:57.945Z,19.30
2023-03-19T21:35:03.776Z,20.50
2023-03-19T21:38:09.634Z,20.30
2023-03-19T21:41:25.115Z,18.60
2023-03-19T21:44:31.487Z,19.30
2023-03-19T21:47:37.228Z,19.50
2023-03-19T21:50:43.541Z,18.70
2023-03-19T21:56:53.849Z,20.10
2023-03-19T21:59:59.745Z,21.70
2023-03-19T22:03:05.809Z,22.50
2023-03-19T22:06:12.754Z,21.90
2023-03-19T22:09:18.645Z,23.00
2023-03-19T22:12:29.109Z,21.60
2023-03-19T22:15:38.020Z,41.20
2023-03-19T22:18:43.926Z,30.90
2023-03-19T22:21:50.731Z,56.70
2023-03-19T22:24:59.369Z,21.90
2023-03-19T22:28:10.524Z,16.00
2023-03-19T22:31:16.617Z,18.10
2023-03-19T22:34:25.267Z,19.10
2023-03-19T22:37:31.991Z,17.80
2023-03-19T22:40:38.721Z,18.00
2023-03-19T22:43:46.269Z,16.90
2023-03-19T22:46:52.166Z,18.30
2023-03-19T22:49:58.471Z,17.10
2023-03-19T22:56:10.893Z,16.20
2023-03-19T22:59:16.734Z,18.10
2023-03-19T23:02:22.613Z,18.20
2023-03-19T23:05:31.815Z,20.70
2023-03-19T23:08:37.650Z,19.30
2023-03-19T23:11:43.854Z,20.30
2023-03-19T23:14:49.922Z,19.90
2023-03-19T23:17:58.269Z,20.80
2023-03-19T23:21:05.087Z,21.50
2023-03-19T23:24:14.746Z,23.30
2023-03-19T23:27:26.100Z,20.80
2023-03-19T23:30:34.176Z,20.10
2023-03-19T23:33:40.200Z,21.60
2023-03-19T23:36:46.381Z,19.20
2023-03-19T23:39:53.764Z,20.70
2023-03-19T23:43:02.274Z,19.90
2023-03-19T23:46:11.637Z,20.80
2023-03-19T23:49:19.429Z,18.40
2023-03-19T23:52:25.275Z,21.00
2023-03-19T23:55:32.410Z,22.40
2023-03-19T23:58:43.240Z,19.00
